createdAt,value
2023-02-14T00:04:57.029Z,-2.59
2023-02-14T00:10:00.647Z,-2.03
2023-02-14T00:15:23.250Z,-2.75
2023-02-14T00:20:28.561Z,-1.75
2023-02-14T00:25:32.329Z,-2.26
2023-02-14T00:30:35.968Z,-1.34
2023-02-14T00:35:39.773Z,-1.56
2023-02-14T00:40:43.491Z,-2.27
2023-02-14T00:45:46.964Z,-1.81
2023-02-14T00:50:50.809Z,-2.15
2023-02-14T00:55:54.365Z,-3.92
2023-02-14T01:00:58.389Z,-2.02
2023-02-14T01:06:02.028Z,-2.35
2023-02-14T01:11:18.938Z,-3.22
2023-02-14T01:16:24.514Z,-1.34
2023-02-14T01:21:31.514Z,-1.31
2023-02-14T01:26:36.610Z,-1.91
2023-02-14T01:31:40.302Z,-3.87
2023-02-14T01:36:44.231Z,-2.16
2023-02-14T01:41:51.843Z,-2.57
2023-02-14T01:46:57.117Z,-2.28
2023-02-14T01:52:03.054Z,-1.35
2023-02-14T01:57:13.993Z,-1.40
2023-02-14T02:02:24.310Z,-2.13
2023-02-14T02:07:30.603Z,-1.62
2023-02-14T02:12:38.971Z,-3.75
2023-02-14T02:17:42.785Z,-1.68
2023-02-14T02:23:24.312Z,-1.75
2023-02-14T02:28:48.934Z,-1.66
2023-02-14T02:34:33.525Z,-2.56
2023-02-14T02:39:54.263Z,-1.68
2023-02-14T02:45:11.081Z,-2.40
2023-02-14T02:50:48.579Z,-2.44
2023-02-14T02:56:17.503Z,-2.40
2023-02-14T03:01:42.554Z,-1.69
2023-02-14T03:06:47.344Z,-1.83
2023-02-14T03:12:17.167Z,-3.40
2023-02-14T03:17:46.878Z,-1.97
2023-02-14T03:23:05.502Z,-3.84
2023-02-14T03:28:32.227Z,-2.41
2023-02-14T03:33:57.062Z,-1.80
2023-02-14T03:39:11.885Z,-1.78
2023-02-14T03:44:21.097Z,-1.76
2023-02-14T03:49:28.883Z,-3.38
2023-02-14T03:54:34.992Z,-1.82
2023-02-14T03:59:38.598Z,-1.75
2023-02-14T04:04:48.829Z,-1.85
2023-02-14T04:09:53.043Z,-1.59
2023-02-14T04:14:56.739Z,-1.80
2023-02-14T04:20:00.462Z,-3.51
2023-02-14T04:25:03.928Z,-3.75
2023-02-14T04:30:08.286Z,-2.48
2023-02-14T04:35:12.281Z,-2.09
2023-02-14T04:40:18.107Z,-2.08
2023-02-14T04:45:21.785Z,-1.69
2023-02-14T04:50:26.993Z,-3.22
2023-02-14T04:55:30.481Z,-2.30
2023-02-14T05:00:34.113Z,-1.58
2023-02-14T05:05:37.463Z,-2.16
2023-02-14T05:10:41.041Z,-2.06
2023-02-14T05:15:54.441Z,-1.56
2023-02-14T05:20:58.419Z,-1.32
2023-02-14T05:26:02.138Z,-0.97
2023-02-14T05:31:05.909Z,-2.46
2023-02-14T05:36:09.647Z,-0.71
2023-02-14T05:41:13.056Z,-0.79
2023-02-14T05:46:16.859Z,-1.19
2023-02-14T05:51:20.172Z,-1.03
2023-02-14T05:56:24.418Z,-2.16
2023-02-14T06:01:27.854Z,-0.64
2023-02-14T06:06:31.274Z,-0.15
2023-02-14T06:11:34.890Z,0.44
2023-02-14T06:16:48.445Z,0.85
2023-02-14T06:21:52.149Z,0.72
2023-02-14T06:26:56.292Z,0.84
2023-02-14T06:32:06.471Z,-0.28
2023-02-14T06:37:10.028Z,-0.34
2023-02-14T06:42:13.416Z,2.14
2023-02-14T06:47:17.451Z,1.26
2023-02-14T06:52:21.085Z,1.86
2023-02-14T06:57:24.450Z,1.19
2023-02-14T07:02:28.071Z,1.66
2023-02-14T07:07:31.644Z,2.05
2023-02-14T07:12:35.806Z,0.78
2023-02-14T07:17:40.336Z,2.77
2023-02-14T07:22:43.723Z,3.32
2023-02-14T07:27:47.155Z,3.38
2023-02-14T07:32:50.679Z,3.67
2023-02-14T07:37:54.484Z,3.37
2023-02-14T07:42:59.619Z,3.98
2023-02-14T07:48:03.137Z,3.94
2023-02-14T07:53:06.758Z,3.17
2023-02-14T07:58:10.338Z,3.51
2023-02-14T08:03:14.592Z,3.48
2023-02-14T08:08:17.976Z,4.75
2023-02-14T08:13:21.621Z,4.89
2023-02-14T08:18:25.377Z,5.09
2023-02-14T08:23:28.949Z,4.42
2023-02-14T08:28:33.885Z,5.43
2023-02-14T08:33:37.469Z,6.38
2023-02-14T08:38:44.743Z,6.71
2023-02-14T08:43:48.740Z,6.51
2023-02-14T08:48:54.148Z,6.17
2023-02-14T08:53:57.520Z,6.41
2023-02-14T08:59:00.872Z,7.35
2023-02-14T09:04:04.807Z,6.23
2023-02-14T09:09:08.567Z,7.77
2023-02-14T09:14:12.239Z,7.94
2023-02-14T09:19:15.745Z,8.17
2023-02-14T09:24:19.198Z,8.47
2023-02-14T09:29:22.848Z,8.24
2023-02-14T09:34:28.516Z,8.71
2023-02-14T09:39:32.083Z,9.53
2023-02-14T09:44:40.628Z,10.40
2023-02-14T09:49:55.208Z,9.78
2023-02-14T09:55:02.144Z,12.01
2023-02-14T10:00:24.090Z,12.79
2023-02-14T10:05:38.067Z,11.49
2023-02-14T10:10:44.132Z,10.14
2023-02-14T10:15:51.691Z,10.56
2023-02-14T10:21:01.150Z,12.30
2023-02-14T10:26:15.683Z,11.82
2023-02-14T10:31:21.378Z,12.59
2023-02-14T10:36:39.792Z,13.44
2023-02-14T10:41:59.197Z,13.96
2023-02-14T10:47:10.395Z,12.70
2023-02-14T10:52:26.695Z,13.50
2023-02-14T10:57:37.163Z,14.02
2023-02-14T11:02:45.826Z,14.11
2023-02-14T11:07:49.995Z,13.37
2023-02-14T11:12:53.405Z,13.98
2023-02-14T11:18:11.354Z,13.98
2023-02-14T11:23:20.924Z,12.42
2023-02-14T11:28:24.884Z,14.06
2023-02-14T11:33:43.788Z,14.16
2023-02-14T11:38:56.911Z,14.24
2023-02-14T11:44:15.505Z,13.38
2023-02-14T11:49:34.462Z,14.24
2023-02-14T11:54:42.733Z,14.29
2023-02-14T11:59:49.369Z,14.49
2023-02-14T12:05:06.357Z,14.23
2023-02-14T12:10:20.044Z,14.20
2023-02-14T12:15:28.246Z,15.65
2023-02-14T12:20:42.755Z,15.20
2023-02-14T12:25:52.685Z,14.60
2023-02-14T12:30:56.465Z,14.90
2023-02-14T12:36:21.044Z,13.99
2023-02-14T12:41:45.545Z,14.87
2023-02-14T12:47:25.869Z,15.57
2023-02-14T12:52:38.860Z,15.58
2023-02-14T12:58:10.363Z,15.44
2023-02-14T13:03:22.853Z,15.48
2023-02-14T13:08:41.292Z,15.67
2023-02-14T13:14:14.458Z,15.72
2023-02-14T13:19:55.679Z,15.91
2023-02-14T13:25:04.831Z,14.67
2023-02-14T13:30:20.186Z,15.82
2023-02-14T13:35:26.002Z,16.08
2023-02-14T13:40:32.113Z,15.92
2023-02-14T13:45:41.578Z,15.99
2023-02-14T13:51:02.392Z,15.91
2023-02-14T13:56:17.875Z,15.94
2023-02-14T14:01:48.946Z,15.89
2023-02-14T14:07:04.582Z,15.89
2023-02-14T14:12:27.974Z,15.63
2023-02-14T14:17:51.425Z,15.86
2023-02-14T14:23:00.992Z,15.76
2023-02-14T14:28:23.075Z,15.64
2023-02-14T14:33:35.245Z,15.48
2023-02-14T14:38:50.781Z,15.62
2023-02-14T14:43:59.891Z,15.39
2023-02-14T14:49:03.807Z,15.30
2023-02-14T14:54:20.696Z,15.02
2023-02-14T14:59:24.046Z,15.09
2023-02-14T15:04:36.447Z,14.98
2023-02-14T15:09:43.762Z,14.66
2023-02-14T15:14:55.296Z,13.02
2023-02-14T15:20:03.112Z,14.90
2023-02-14T15:25:19.132Z,14.50
2023-02-14T15:30:29.967Z,14.36
2023-02-14T15:35:37.298Z,13.74
2023-02-14T15:40:43.369Z,14.29
2023-02-14T15:45:51.048Z,12.94
2023-02-14T15:51:07.203Z,13.68
2023-02-14T15:56:20.503Z,13.67
2023-02-14T16:01:24.158Z,12.62
2023-02-14T16:06:49.891Z,13.01
2023-02-14T16:11:54.491Z,12.71
2023-02-14T16:17:14.625Z,11.86
2023-02-14T16:22:33.313Z,11.52
2023-02-14T16:27:46.395Z,10.66
2023-02-14T16:32:51.542Z,11.27
2023-02-14T16:37:55.038Z,10.48
2023-02-14T16:42:59.989Z,10.79
2023-02-14T16:48:04.112Z,10.75
2023-02-14T16:53:13.555Z,10.57
2023-02-14T16:58:17.224Z,10.29
2023-02-14T17:03:21.670Z,10.37
2023-02-14T17:08:25.737Z,9.35
2023-02-14T17:13:32.453Z,8.80
2023-02-14T17:18:36.961Z,8.87
2023-02-14T17:23:40.395Z,10.13
2023-02-14T17:28:43.745Z,9.66
2023-02-14T17:33:47.339Z,9.56
2023-02-14T17:38:53.804Z,8.52
2023-02-14T17:44:01.188Z,9.62
2023-02-14T17:49:04.694Z,7.92
2023-02-14T17:54:08.314Z,8.50
2023-02-14T17:59:12.353Z,8.24
2023-02-14T18:04:15.965Z,7.79
2023-02-14T18:09:22.613Z,8.76
2023-02-14T18:14:25.944Z,8.71
2023-02-14T18:19:29.915Z,7.40
2023-02-14T18:24:33.360Z,6.57
2023-02-14T18:29:37.355Z,7.53
2023-02-14T18:34:40.922Z,7.12
2023-02-14T18:39:45.174Z,7.82
2023-02-14T18:44:48.589Z,7.58
2023-02-14T18:49:52.005Z,6.79
2023-02-14T18:54:59.623Z,7.37
2023-02-14T19:00:07.646Z,7.22
2023-02-14T19:05:11.484Z,7.60
2023-02-14T19:10:14.866Z,6.38
2023-02-14T19:15:20.181Z,5.60
2023-02-14T19:20:27.235Z,6.18
2023-02-14T19:25:41.008Z,6.75
2023-02-14T19:30:44.525Z,7.03
2023-02-14T19:35:48.949Z,6.71
2023-02-14T19:40:52.409Z,7.27
2023-02-14T19:45:56.244Z,6.76
2023-02-14T19:51:01.664Z,8.01
2023-02-14T19:56:11.949Z,8.20
2023-02-14T20:01:32.607Z,7.23
2023-02-14T20:06:37.684Z,7.53
2023-02-14T20:11:50.779Z,8.05
2023-02-14T20:16:56.866Z,7.95
2023-02-14T20:22:02.181Z,7.74
2023-02-14T20:27:06.103Z,7.00
2023-02-14T20:32:10.694Z,8.01
2023-02-14T20:37:14.327Z,6.72
2023-02-14T20:42:18.313Z,7.62
2023-02-14T20:47:22.090Z,6.92
2023-02-14T20:52:27.786Z,7.60
2023-02-14T20:57:31.271Z,6.41
2023-02-14T21:02:34.666Z,7.49
2023-02-14T21:07:39.026Z,7.60
2023-02-14T21:12:42.812Z,7.63
2023-02-14T21:17:46.421Z,6.90
2023-02-14T21:22:49.737Z,7.25
2023-02-14T21:28:00.475Z,7.11
2023-02-14T21:33:04.779Z,6.98
2023-02-14T21:38:08.333Z,7.15
2023-02-14T21:43:11.767Z,7.27
2023-02-14T21:48:34.127Z,6.56
2023-02-14T21:53:37.863Z,6.28
2023-02-14T21:58:41.973Z,7.20
2023-02-14T22:03:45.749Z,6.58
2023-02-14T22:09:00.289Z,6.18
2023-02-14T22:14:04.562Z,6.67
2023-02-14T22:19:09.513Z,5.66
2023-02-14T22:24:13.948Z,6.40
2023-02-14T22:29:25.325Z,5.94
2023-02-14T22:34:29.085Z,5.84
2023-02-14T22:39:32.843Z,5.91
2023-02-14T22:44:36.838Z,5.63
2023-02-14T22:49:40.403Z,6.48
2023-02-14T22:54:44.364Z,5.60
2023-02-14T22:59:48.193Z,5.72
2023-02-14T23:04:52.800Z,6.05
2023-02-14T23:10:08.432Z,6.23
2023-02-14T23:15:44.918Z,5.66
2023-02-14T23:21:07.428Z,6.18
2023-02-14T23:26:11.121Z,6.63
2023-02-14T23:31:14.983Z,5.71
2023-02-14T23:36:18.971Z,4.62
2023-02-14T23:41:41.199Z,6.03
2023-02-14T23:46:45.462Z,4.31
2023-02-14T23:51:50.972Z,5.49
2023-02-14T23:57:05.712Z,5.57
